Tiempo atmosférico en la estación meteorológica de Navalvillar De Pela, Badajoz (308 m.)



Fecha
DESCASC
Temp. máxima en grados centígrados (hora)
DESCASC
Temp. mínima en grados centígrados (hora)
DESCASC
Temp. media en grados centígrados
DESCASC
Racha de viento máxima en m/sg (hora)
DESCASC
Velocidad máxima media en intervalos de 10 minutos(hora)
DESCASC
Precipitaciones diarias en mm
DESCASC
Precipitaciones de 00:00 a 06:00 en mm
DESCASC
Precipitaciones de 06:00 a 12:00 en mm
DESCASC
Precipitaciones de 12:00 a 18:00 en mm
DESCASC
Precipitaciones de 18:00 a 24:00 en mm
DESCASC
22-01-2020 11.9 (15:20) 5.1 (03:00) 8.5 5 (13:40) 3.33 (13:40) 1 0 0.8 0 0.2
21-01-2020 10.6 (12:20) 4.8 (08:50) 7.7 10.83 (04:30) 6.67 (00:10) 0 0 0 0 0
20-01-2020 7.2 (15:20) 4 (09:00) 5.6 15.83 (12:00) 11.11 (11:40) 0 0 0 0 0
19-01-2020 13.4 (15:20) 6.4 (00:00) 9.9 12.5 (14:30) 7.5 (14:30) 0 0 0 0 0
18-01-2020 14.3 (19:00) 7.4 (00:00) 10.9 10.56 (21:30) 6.39 (21:50) 6 0 4 2 0
17-01-2020 14.7 (16:50) 8.4 (00:00) 11.5 10 (00:30) 5 (02:20) 0 0 0 0 0
16-01-2020 18 (15:20) 7.9 (00:00) 13 9.72 (23:40) 5 (19:50) 0 0 0 0 0
15-01-2020 12.5 (14:10) 3.8 (00:00) 8.1 5 (00:20) 3.06 (00:10) 0 0 0 0 0
14-01-2020 12.8 (16:10) -0.8 (-00:0) 6 5.83 (22:50) 3.33 (11:30) 0 0 0 0 0
13-01-2020 12.9 (16:40) -1.2 (-00:0) 5.8 4.17 (11:00) 3.06 (11:20) 0 0 0 0 0
12-01-2020 13.5 (17:00) -0.8 (-00:0) 6.3 3.33 (14:30) 1.67 (14:30) 0 0 0 0 0
11-01-2020 14.6 (17:10) 2.1 (00:00) 8.4 4.44 (12:00) 2.78 (09:30) 0 0 0 0 0
10-01-2020 14 (15:10) 2.7 (00:00) 8.4 6.39 (15:20) 4.17 (14:30) 0 0 0 0 0
09-01-2020 11.2 (16:50) 0.1 (00:00) 5.6 4.72 (17:10) 3.33 (17:10) 0 0 0 0 0
08-01-2020 14.8 (16:40) 0.9 (00:00) 7.9 2.22 (05:40) 1.67 (05:40) 0 0 0 0 0
07-01-2020 16.5 (16:10) 0.7 (00:00) 8.6 2.78 (17:10) 2.22 (05:20) 0 0 0 0 0
06-01-2020 15.4 (17:00) 0.7 (00:00) 8 3.33 (22:50) 2.5 (22:50) 0 0 0 0 0
05-01-2020 14.9 (16:30) 0.7 (00:00) 7.8 2.78 (00:20) 2.5 (05:10) 0 0 0 0 0
04-01-2020 13.5 (15:20) 1.8 (00:00) 7.6 3.61 (16:00) 2.22 (16:50) 0 0 0 0 0
03-01-2020 13.3 (15:30) 4.5 (00:00) 8.9 4.44 (16:40) 2.78 (16:30) 0 0 0 0 0
02-01-2020 14.6 (16:30) 1.6 (00:00) 8.1 3.06 (16:50) 2.22 (08:50) 0 0 0 0 0
01-01-2020 15.3 (17:00) 1.5 (00:00) 8.4 3.06 (02:40) 2.22 (03:20) 0 0 0 0 0
31-12-2019 15.2 (17:00) 1.7 (00:00) 8.4 -- (--) -- (--) 0 0 0 0 0
30-12-2019 17.5 (17:20) 2.9 (00:00) 10.2 4.72 (12:00) 3.06 (02:10) 0 0 0 0 0
29-12-2019 18.9 (16:30) 4 (00:00) 11.4 3.61 (06:40) 2.78 (05:10) 0 0 0 0 0
28-12-2019 19.4 (16:30) 6.7 (00:00) 13 3.06 (02:00) 2.5 (06:10) 0 0 0 0 0
27-12-2019 19.4 (15:40) 8.1 (00:00) 13.8 4.17 (10:30) 3.33 (10:30) 0 0 0 0 0
26-12-2019 17.6 (16:10) 5.7 (00:00) 11.7 2.5 (12:20) 1.67 (23:00) 0 0 0 0 0
25-12-2019 20 (16:00) 7.4 (00:00) 13.7 3.61 (05:00) 2.78 (05:00) 0 0 0 0 0

Gráficas

Temp. máximas Temp. mínimas Temp. medias Precipitaciones Rachas de viento máximas Velocidades máximas media en intervalos de 10 minutos

Datos horarios

Fecha y hora oficial Temperatura (ºC) Velocidad del viento (km/h) Dirección del viento Racha (km/h) Dirección de racha Precipitación (mm) Presión (hPa) Tendencia (hPa) Humedad (%)
2020-01-23 23:00:00 8.5 4 Sudeste 9 Sur 1.6 -- -- 96
2020-01-23 22:00:00 8.8 6 Sur 15 Sur 1.4 -- -- 95
2020-01-23 21:00:00 8.7 3 Sudeste 6 Sudeste 0.4 -- -- 96
2020-01-23 20:00:00 9 3 Sudeste 6 Sur 1 -- -- 94
2020-01-23 19:00:00 9.5 0 Calma 6 Sur 1.6 -- -- 92
2020-01-23 18:00:00 10.3 5 Sur 14 Sudeste 0 -- -- 86
2020-01-23 17:00:00 10.4 7 Sudeste 14 Sudeste 0 -- -- 92
2020-01-23 16:00:00 10.1 10 Sudeste 14 Este 0.6 -- -- 93
2020-01-23 15:00:00 9.9 7 Sudeste 9 Sudeste 2 -- -- 94
2020-01-23 14:00:00 9.7 7 Sudeste 13 Sur 1.2 -- -- 91
2020-01-23 13:00:00 9.9 8 Sur 17 Sudeste 0.8 -- -- 85
2020-01-23 12:00:00 10 11 Sudeste 16 Sudeste 0.2 -- -- 84
2020-01-23 11:00:00 8.4 5 Sudeste 8 Sudeste 0 -- -- 92
2020-01-23 10:00:00 7.1 5 Sur 7 Sur 0 -- -- 95
2020-01-23 09:00:00 6.7 0 Calma 7 Sur 0 -- -- 95
2020-01-23 08:00:00 7 6 Sur 9 Sur 0.4 -- -- 95
2020-01-23 07:00:00 7.1 7 Sur 14 Sur 0.6 -- -- 94
2020-01-23 06:00:00 7.2 10 Sudeste 15 Sudeste 0.8 -- -- 93
2020-01-23 05:00:00 7 3 Sudoeste 5 Sudoeste 1 -- -- 95
2020-01-23 04:00:00 6.8 2 Sur 5 Sur 0.6 -- -- 94
2020-01-23 03:00:00 6.6 0 Calma 2 Sudeste 0 -- -- 93
2020-01-23 02:00:00 6.5 3 Este 6 Este 0 -- -- 92
2020-01-23 01:00:00 7 3 Sur 6 Sur 0 -- -- 90
2020-01-23 00:00:00 8 4 Sur 14 Sur 0 -- -- 87
2020-01-22 23:00:00 7.3 8 Sur 11 Sur 0 -- -- 90
2020-01-22 22:00:00 7.1 7 Sur 9 Sur 0 -- -- 89
2020-01-22 21:00:00 8.3 6 Sudeste 14 Sudeste 0 -- -- 83
2020-01-22 20:00:00 8.3 3 Sur 5 Este 0 -- -- 84
2020-01-22 19:00:00 9.2 4 Sur 9 Sudeste 0.2 -- -- 82
2020-01-22 18:00:00 10.6 6 Sudeste 14 Sudeste 0 -- -- 72
2020-01-22 17:00:00 11.5 11 Sudeste 18 Sudeste 0 -- -- 66
2020-01-22 16:00:00 11.7 8 Este 16 Este 0 -- -- 70
2020-01-22 15:00:00 11.5 5 Sudeste 14 Este 0 -- -- 71
2020-01-22 14:00:00 10.7 11 Sudeste 18 Este 0 -- -- 73
2020-01-22 13:00:00 9.3 8 Sudeste 15 Sudeste 0 -- -- 81
2020-01-22 12:00:00 8.3 8 Sudeste 12 Sur 0 -- -- 89
2020-01-22 11:00:00 7.3 7 Sudeste 15 Sudeste 0.4 -- -- 91
2020-01-22 10:00:00 7 6 Sur 11 Sur 0.2 -- -- 92
2020-01-22 09:00:00 6.5 7 Sudeste 14 Sudeste 0 -- -- 94
2020-01-22 08:00:00 6.3 8 Sudeste 15 Sudeste 0 -- -- 93
2020-01-22 07:00:00 6.2 8 Sur 15 Sur 0.2 -- -- 92
2020-01-22 06:00:00 6.3 8 Sur 13 Sudeste 0 -- -- 90
2020-01-22 05:00:00 6.5 7 Sur 14 Sur 0 -- -- 86
2020-01-22 04:00:00 6.4 10 Sudeste 15 Sur 0 -- -- 83
2020-01-22 03:00:00 5.1 4 Sur 8 Este 0 -- -- 86
2020-01-22 02:00:00 6 8 Este 11 Este 0 -- -- 84
2020-01-22 01:00:00 6.1 3 Nordeste 12 Este 0 -- -- 82
2020-01-22 00:00:00 6.5 9 Este 18 Este 0 -- -- 80
2020-01-21 23:00:00 7.8 13 Este 21 Este 0 -- -- 75
2020-01-21 22:00:00 8.2 12 Este 22 Este 0 -- -- 74
2020-01-21 21:00:00 8.6 12 Este 31 Este 0 -- -- 71
2020-01-21 20:00:00 9.2 14 Este 20 Sudeste 0 -- -- 67
2020-01-21 19:00:00 9 9 Este 14 Este 0 -- -- 69
2020-01-21 18:00:00 9.4 2 Este 28 Este 0 -- -- 67
2020-01-21 17:00:00 9.7 16 Este 25 Este 0 -- -- 63
2020-01-21 16:00:00 9.7 22 Este 35 Este 0 -- -- 64
2020-01-21 15:00:00 10 22 Este 33 Este 0 -- -- 64
2020-01-21 14:00:00 9.8 22 Este 36 Este 0 -- -- 61
2020-01-21 13:00:00 10.1 19 Este 29 Este 0 -- -- 61
2020-01-21 12:00:00 9.3 8 Este 19 Sudeste 0 -- -- 59
2020-01-21 11:00:00 8 11 Este 24 Este 0 -- -- 64
2020-01-21 10:00:00 6.5 7 Este 29 Nordeste 0 -- -- 65
2020-01-21 09:00:00 4.9 5 Este 18 Sudeste 0 -- -- 69
2020-01-21 08:00:00 5.2 5 Sudeste 29 Este 0 -- -- 68
2020-01-21 07:00:00 6.2 19 Este 32 Este 0 -- -- 66
2020-01-21 06:00:00 6.7 13 Este 30 Sudeste 0 -- -- 64
2020-01-21 05:00:00 6.5 18 Este 39 Este 0 -- -- 64
2020-01-21 04:00:00 6.7 18 Este 28 Sudeste 0 -- -- 63
2020-01-21 03:00:00 6.5 14 Este 26 Este 0 -- -- 64
2020-01-21 02:00:00 7 16 Este 34 Este 0 -- -- 61
2020-01-21 01:00:00 6.9 20 Este 33 Este 0 -- -- 62
2020-01-21 00:00:00 7 23 Este 36 Este 0 -- -- 60
2020-01-20 23:00:00 7.2 28 Este 39 Este 0 -- -- 60
2020-01-20 22:00:00 7 20 Este 34 Este 0 -- -- 60
2020-01-20 21:00:00 5.9 2 Sudeste 30 Sudeste 0 -- -- 63
2020-01-20 20:00:00 7.1 21 Este 34 Este 0 -- -- 59
2020-01-20 19:00:00 7 15 Sudeste 30 Sudeste 0 -- -- 59
2020-01-20 18:00:00 6.8 16 Sudeste 33 Sudeste 0 -- -- 61
2020-01-20 17:00:00 6.5 21 Este 35 Sudeste 0 -- -- 65
2020-01-20 16:00:00 5.9 24 Este 45 Este 0 -- -- 68
2020-01-20 15:00:00 7 24 Este 42 Sudeste 0 -- -- 59
2020-01-20 14:00:00 6.7 23 Este 42 Este 0 -- -- 58
2020-01-20 13:00:00 6.1 32 Este 50 Este 0 -- -- 59
2020-01-20 12:00:00 6.6 36 Este 57 Este 0 -- -- 54
2020-01-20 11:00:00 6.8 26 Este 37 Este 0 -- -- 43
2020-01-20 10:00:00 5.3 2 Norte 16 Este 0 -- -- 41
2020-01-20 09:00:00 4 13 Este 28 Este 0 -- -- 48
2020-01-20 08:00:00 4.5 14 Este 32 Este 0 -- -- 48
2020-01-20 07:00:00 5.7 21 Este 30 Este 0 -- -- 41
2020-01-20 06:00:00 6 16 Este 26 Este 0 -- -- 40
2020-01-20 05:00:00 6.2 17 Este 29 Este 0 -- -- 44
2020-01-20 04:00:00 6.4 18 Este 31 Este 0 -- -- 43
2020-01-20 03:00:00 6.2 15 Este 31 Este 0 -- -- 46
2020-01-20 02:00:00 6.5 15 Este 26 Este 0 -- -- 44
2020-01-20 01:00:00 6.1 10 Este 26 Este 0 -- -- 46
2020-01-20 00:00:00 6.6 18 Este 35 Sudeste 0 -- -- 47
2020-01-19 23:00:00 7.3 19 Este 34 Este 0 -- -- 46
2020-01-19 22:00:00 8.2 17 Este 24 Este 0 -- -- 46
2020-01-19 21:00:00 8.8 12 Este 25 Este 0 -- -- 47
2020-01-19 20:00:00 9.4 16 Este 33 Este 0 -- -- 46
2020-01-19 19:00:00 9.8 21 Este 33 Este 0 -- -- 44
2020-01-19 18:00:00 10.6 19 Este 36 Este 0 -- -- 46
2020-01-19 17:00:00 12 26 Nordeste 41 Nordeste 0 -- -- 40
2020-01-19 16:00:00 12.1 24 Este 35 Este 0 -- -- 48
2020-01-19 15:00:00 13 17 Este 45 Este 0 -- -- 52
2020-01-19 14:00:00 11.4 25 Este 41 Este 0 -- -- 58
2020-01-19 13:00:00 13 11 Este 18 Nordeste 0 -- -- 56
2020-01-19 12:00:00 11 9 Noroeste 15 Noroeste 0 -- -- 74
2020-01-19 11:00:00 9.3 4 Noroeste 13 Noroeste 0 -- -- 77
2020-01-19 10:00:00 8.2 5 Noroeste 15 Oeste 0 -- -- 82
2020-01-19 09:00:00 6.5 8 Oeste 14 Noroeste 0 -- -- 89
2020-01-19 08:00:00 6.5 8 Oeste 15 Noroeste 0 -- -- 90
2020-01-19 07:00:00 7.2 9 Noroeste 22 Noroeste 0 -- -- 87
2020-01-19 06:00:00 8 12 Noroeste 26 Noroeste 0 -- -- 84
2020-01-19 05:00:00 7.7 8 Noroeste 26 Noroeste 0 -- -- 86
2020-01-19 04:00:00 8.4 17 Noroeste 27 Noroeste 0 -- -- 83
2020-01-19 03:00:00 8.4 14 Noroeste 28 Noroeste 0 -- -- 86
2020-01-19 02:00:00 8.9 11 Noroeste 31 Noroeste 0 -- -- 88
2020-01-19 01:00:00 9.8 19 Noroeste 28 Oeste 0 -- -- 91
2020-01-19 00:00:00 10.7 15 Noroeste 36 Noroeste 0 -- -- 90
2020-01-18 23:00:00 10.8 13 Noroeste 32 Noroeste 0 -- -- 87
2020-01-18 22:00:00 11.9 21 Noroeste 38 Noroeste 0 -- -- 89
2020-01-18 21:00:00 12.5 17 Noroeste 28 Oeste 0 -- -- 91
2020-01-18 20:00:00 13.5 14 Oeste 24 Oeste 0 -- -- 91
2020-01-18 19:00:00 14.3 14 Oeste 29 Oeste 0 -- -- 90
2020-01-18 18:00:00 13.2 8 Oeste 18 Oeste 0 -- -- 91
2020-01-18 17:00:00 13.4 9 Noroeste 19 Oeste 0 -- -- 92
2020-01-18 16:00:00 12.8 5 Noroeste 10 Oeste 0 -- -- 97
2020-01-18 15:00:00 12 0 Calma 8 Sudeste 0.8 -- -- 97
2020-01-18 14:00:00 11.3 5 Sudeste 18 Sur 0.4 -- -- 96
2020-01-18 13:00:00 10.9 13 Sur 24 Sur 0.8 -- -- 96
2020-01-18 12:00:00 10.4 16 Sur 24 Sur 0.8 -- -- 97
2020-01-18 11:00:00 9.7 11 Sur 17 Sur 1 -- -- 97
2020-01-18 10:00:00 9.1 3 Sur 8 Sur 0.8 -- -- 97
2020-01-18 09:00:00 8.5 3 Sudeste 7 Sudeste 1 -- -- 96
2020-01-18 08:00:00 8.5 4 Sur 6 Sudeste 0.2 -- -- 96
2020-01-18 07:00:00 8.6 5 Sudeste 9 Sur 0.2 -- -- 94
2020-01-18 06:00:00 8.4 0 Calma 11 Sudeste 0 -- -- 95
2020-01-18 05:00:00 9.1 6 Sudeste 13 Sur 0 -- -- 92
2020-01-18 04:00:00 8.9 5 Sur 10 Sur 0 -- -- 94
2020-01-18 03:00:00 9.3 8 Sur 14 Sur 0 -- -- 94
2020-01-18 02:00:00 7.7 5 Sudoeste 6 Sur 0 -- -- 95
2020-01-18 01:00:00 7.8 3 Nordeste 8 Sudoeste 0 -- -- 92
2020-01-18 00:00:00 8.6 5 Sudoeste 8 Sur 0 -- -- 92
2020-01-17 23:00:00 8.6 5 Sudoeste 9 Sur 0 -- -- 91
2020-01-17 22:00:00 9.2 3 Sudeste 10 Sudeste 0 -- -- 87
2020-01-17 21:00:00 10.8 5 Noroeste 12 Noroeste 0 -- -- 82
2020-01-17 20:00:00 10.9 6 Oeste 9 Oeste 0 -- -- 80
2020-01-17 19:00:00 11 4 Oeste 6 Oeste 0 -- -- 76
2020-01-17 18:00:00 13.2 4 Noroeste 13 Oeste 0 -- -- 68
2020-01-17 17:00:00 14.7 6 Noroeste 18 Noroeste 0 -- -- 64
2020-01-17 16:00:00 13.4 8 Noroeste 17 Noroeste 0 -- -- 74
2020-01-17 15:00:00 14.3 11 Noroeste 22 Noroeste 0 -- -- 72
2020-01-17 14:00:00 13.1 11 Noroeste 18 Noroeste 0 -- -- 77
2020-01-17 13:00:00 12.8 12 Noroeste 21 Noroeste 0 -- -- 78
2020-01-17 12:00:00 11.5 12 Noroeste 19 Noroeste 0 -- -- 85
2020-01-17 11:00:00 11.5 11 Noroeste 18 Noroeste 0 -- -- 84
2020-01-17 10:00:00 10.6 10 Noroeste 18 Noroeste 0 -- -- 91
2020-01-17 09:00:00 10.6 5 Noroeste 9 Noroeste 0 -- -- 91
2020-01-17 08:00:00 10.5 5 Noroeste 11 Noroeste 0 -- -- 90
2020-01-17 07:00:00 10.5 4 Noroeste 8 Noroeste 0 -- -- 90
2020-01-17 06:00:00 10.3 3 Noroeste 9 Norte 0 -- -- 88
2020-01-17 05:00:00 10.6 5 Norte 8 Norte 0 -- -- 87
2020-01-17 04:00:00 10.9 5 Norte 12 Norte 0 -- -- 85
2020-01-17 03:00:00 11.6 7 Norte 29 Oeste 0 -- -- 79
2020-01-17 02:00:00 12.6 12 Oeste 27 Oeste 0 -- -- 66
2020-01-17 01:00:00 12.4 9 Oeste 36 Noroeste 0 -- -- 62
2020-01-17 00:00:00 11.7 10 Oeste 35 Oeste 0 -- -- 66
2020-01-16 23:00:00 13.2 11 Oeste 22 Oeste 0 -- -- 50
2020-01-16 22:00:00 12.8 15 Sudoeste 25 Oeste 0 -- -- 53
2020-01-16 21:00:00 13.5 16 Oeste 27 Oeste 0 -- -- 48
2020-01-16 20:00:00 14.7 16 Oeste 30 Oeste 0 -- -- 47
2020-01-16 19:00:00 15 14 Oeste 23 Oeste 0 -- -- 46
2020-01-16 18:00:00 15.2 9 Oeste 20 Sudoeste 0 -- -- 46
2020-01-16 17:00:00 17.5 13 Oeste 27 Oeste 0 -- -- 40
2020-01-16 16:00:00 18 13 Sudoeste 25 Oeste 0 -- -- 39
2020-01-16 15:00:00 17.5 8 Sudoeste 16 Sudoeste 0 -- -- 49
2020-01-16 14:00:00 16.9 6 Oeste 15 Sur 0 -- -- 47
2020-01-16 13:00:00 14.9 10 Sur 15 Sur 0 -- -- 62
2020-01-16 12:00:00 13.8 10 Sur 17 Sur 0 -- -- 66
2020-01-16 11:00:00 11.8 12 Sur 17 Sudoeste 0 -- -- 75
2020-01-16 10:00:00 10 8 Sur 12 Sur 0 -- -- 90
2020-01-16 09:00:00 8.1 7 Sur 9 Sur 0 -- -- 93
2020-01-16 08:00:00 9.8 8 Sur 10 Sur 0 -- -- 88
2020-01-16 07:00:00 10.7 6 Sur 13 Sur 0 -- -- 88
2020-01-16 06:00:00 10.7 2 Nordeste 17 Sudoeste 0 -- -- 88
2020-01-16 05:00:00 10.9 12 Sur 17 Sur 0 -- -- 88
2020-01-16 04:00:00 11.2 5 Sudeste 12 Sudeste 0 -- -- 86
2020-01-16 03:00:00 11.1 8 Sudeste 10 Sudeste 0 -- -- 87
2020-01-16 02:00:00 11.3 5 Sudeste 12 Sur 0 -- -- 87
2020-01-16 01:00:00 11.5 6 Sur 11 Sur 0 -- -- 86
2020-01-16 00:00:00 11.6 5 Sudeste 10 Sur 0 -- -- 86
2020-01-15 23:00:00 11.6 5 Sudeste 10 Sudeste 0 -- -- 87
2020-01-15 22:00:00 11.4 5 Sudeste 12 Este 0 -- -- 89
2020-01-15 21:00:00 10.8 8 Sudeste 14 Sudeste 0 -- -- 88
2020-01-15 20:00:00 10.5 2 Sudoeste 9 Sudoeste 0 -- -- 88
2020-01-15 19:00:00 10.6 5 Nordeste 8 Este 0 -- -- 85
2020-01-15 18:00:00 11.3 0 Calma 8 Nordeste 0 -- -- 82
2020-01-15 17:00:00 12 2 Nordeste 9 Sudeste 0 -- -- 82
2020-01-15 16:00:00 12.3 3 Sudeste 9 Sudeste 0 -- -- 81
2020-01-15 15:00:00 12.2 5 Sudeste 13 Sur 0 -- -- 77
2020-01-15 14:00:00 12.4 5 Sudeste 11 Sur 0 -- -- 75
2020-01-15 13:00:00 10.8 9 Sudeste 12 Sudeste 0 -- -- 78
2020-01-15 12:00:00 11.7 6 Sudoeste 15 Sudoeste 0 -- -- 74
2020-01-15 11:00:00 10.6 5 Sudeste 10 Sudeste 0 -- -- 79
2020-01-15 10:00:00 7.4 5 Este 12 Este 0 -- -- 90
2020-01-15 09:00:00 7.1 8 Este 14 Este 0 -- -- 89
2020-01-15 08:00:00 6 5 Sudeste 8 Sur 0 -- -- 90
2020-01-15 07:00:00 5 6 Sur 9 Sur 0 -- -- 95
2020-01-15 06:00:00 3.9 5 Sur 9 Sur 0 -- -- 93
2020-01-15 05:00:00 4.2 4 Este 9 Sur 0 -- -- 92
2020-01-15 04:00:00 5.5 5 Sur 10 Sur 0 -- -- 90
2020-01-15 03:00:00 6.6 5 Sur 11 Sur 0 -- -- 86
2020-01-15 02:00:00 7.8 3 Este 8 Sudeste 0 -- -- 83
2020-01-15 01:00:00 9 7 Sudeste 18 Sudeste 0 -- -- 79
2020-01-15 00:00:00 9 10 Sudeste 20 Sudoeste 0 -- -- 83
2020-01-14 23:00:00 10.2 9 Sudoeste 21 Oeste 0 -- -- 74
2020-01-14 22:00:00 10.9 11 Sudoeste 17 Sudoeste 0 -- -- 72
2020-01-14 21:00:00 9.8 3 Sudeste 6 Sudeste 0 -- -- 80
2020-01-14 20:00:00 10.5 3 Sudeste 9 Sur 0 -- -- 76
2020-01-14 19:00:00 11 0 Calma 6 Sur 0 -- -- 70
2020-01-14 18:00:00 11.4 4 Sudoeste 8 Sudoeste 0 -- -- 70
2020-01-14 17:00:00 11.9 5 Sudoeste 17 Sur 0 -- -- 67
2020-01-14 16:00:00 12.6 6 Sudoeste 17 Sudeste 0 -- -- 63
2020-01-14 15:00:00 12.2 5 Sur 13 Sur 0 -- -- 66
2020-01-14 14:00:00 12 3 Noroeste 13 Sudeste 0 -- -- 67
2020-01-14 13:00:00 10.5 9 Sudeste 16 Sur 0 -- -- 71
2020-01-14 12:00:00 8.7 8 Sudeste 17 Sur 0 -- -- 79
2020-01-14 11:00:00 6.6 9 Sur 15 Sur 0 -- -- 86
2020-01-14 10:00:00 3.2 8 Sudeste 12 Sudeste 0 -- -- 97
2020-01-14 09:00:00 0.1 4 Este 13 Sur 0 -- -- 96
2020-01-14 08:00:00 -0.5 0 Calma 2 Sudeste 0 -- -- 96
2020-01-14 07:00:00 -0.3 0 Calma 8 Sur 0 -- -- 96
2020-01-14 06:00:00 -0.1 3 Sur 5 Noroeste 0 -- -- 96
2020-01-14 05:00:00 0.6 4 Noroeste 11 Noroeste 0 -- -- 95
2020-01-14 04:00:00 0.4 3 Sur 8 Sudeste 0 -- -- 95
2020-01-14 03:00:00 1.1 4 Este 11 Sur 0 -- -- 94
2020-01-14 02:00:00 1.2 0 Calma 4 Sudeste 0 -- -- 94
2020-01-14 01:00:00 1.3 0 Calma 5 Este 0 -- -- 92
2020-01-14 00:00:00 3 3 Sur 8 Sudoeste 0 -- -- 89
2020-01-13 23:00:00 2.2 2 Sur 4 Sudoeste 0 -- -- 90
2020-01-13 22:00:00 3.3 0 Calma 5 Nordeste 0 -- -- 88
2020-01-13 21:00:00 5.1 4 Sudoeste 8 Sudoeste 0 -- -- 79
2020-01-13 20:00:00 6.4 3 Oeste 8 Sur 0 -- -- 76
2020-01-13 19:00:00 8.2 4 Oeste 7 Noroeste 0 -- -- 69
2020-01-13 18:00:00 11.2 3 Oeste 10 Noroeste 0 -- -- 60
2020-01-13 17:00:00 12.8 7 Noroeste 11 Oeste 0 -- -- 55
2020-01-13 16:00:00 12.5 6 Noroeste 9 Noroeste 0 -- -- 55
2020-01-13 15:00:00 11.9 3 Norte 10 Norte 0 -- -- 62
2020-01-13 14:00:00 10.8 3 Norte 8 Norte 0 -- -- 66
2020-01-13 13:00:00 9.7 6 Este 10 Sur 0 -- -- 72
2020-01-13 12:00:00 7.4 5 Sudeste 14 Sudeste 0 -- -- 83
2020-01-13 11:00:00 5.2 10 Sudeste 15 Sudeste 0 -- -- 90
2020-01-13 10:00:00 1.9 3 Sudeste 7 Sudeste 0 -- -- 97
2020-01-13 09:00:00 0.3 6 Sur 10 Sur 0 -- -- 98
2020-01-13 08:00:00 -0.5 0 Calma 8 Sur 0 -- -- 95
2020-01-13 07:00:00 0.5 0 Calma 9 Sur 0 -- -- 94
2020-01-13 06:00:00 -0.2 4 Sur 8 Sur 0 -- -- 95
2020-01-13 05:00:00 -0.5 3 Sudeste 6 Sudeste 0 -- -- 94
2020-01-13 04:00:00 1.1 3 Sur 5 Sur 0 -- -- 94
2020-01-13 03:00:00 2.1 5 Sur 6 Sur 0 -- -- 97
2020-01-13 02:00:00 1 4 Sudeste 5 Sudeste 0 -- -- 95
2020-01-13 01:00:00 1.4 2 Sudeste 3 Sudeste 0 -- -- 92
2020-01-13 00:00:00 2.4 0 Calma 3 Sur 0 -- -- 89
2020-01-12 23:00:00 2.7 0 Calma 5 Sudoeste 0 -- -- 86
2020-01-12 22:00:00 3.9 5 Sudoeste 5 Sudoeste 0 -- -- 82
2020-01-12 21:00:00 4.4 0 Calma 4 Sudoeste 0 -- -- 80
2020-01-12 20:00:00 5.7 4 Sudoeste 7 Sudoeste 0 -- -- 75
2020-01-12 19:00:00 7 6 Sudoeste 8 Sudoeste 0 -- -- 73
2020-01-12 18:00:00 13 3 Noroeste 7 Noroeste 0 -- -- 53
2020-01-12 17:00:00 13.5 3 Noroeste 10 Noroeste 0 -- -- 52
2020-01-12 16:00:00 13 6 Norte 11 Noroeste 0 -- -- 53
2020-01-12 15:00:00 12.4 6 Noroeste 12 Noroeste 0 -- -- 60
2020-01-12 14:00:00 11.3 4 Noroeste 8 Noroeste 0 -- -- 66
2020-01-12 13:00:00 10.4 2 Nordeste 6 Este 0 -- -- 69
2020-01-12 12:00:00 8.4 4 Este 8 Sudeste 0 -- -- 76
2020-01-12 11:00:00 6.1 5 Sudeste 9 Sur 0 -- -- 88
2020-01-12 10:00:00 2.3 3 Sur 4 Sur 0 -- -- 98
2020-01-12 09:00:00 -0.6 2 Este 5 Sudeste 0 -- -- 97
2020-01-12 08:00:00 -0.8 3 Sudeste 5 Sudeste 0 -- -- 95
2020-01-12 07:00:00 0.5 5 Sur 8 Sur 0 -- -- 95
2020-01-12 06:00:00 0.3 2 Sur 3 Sudoeste 0 -- -- 94
2020-01-12 05:00:00 0.9 0 Calma 4 Sudeste 0 -- -- 96
2020-01-12 04:00:00 1.2 3 Sudeste 5 Sudeste 0 -- -- 94
2020-01-12 03:00:00 1 3 Sudeste 4 Sudeste 0 -- -- 92
2020-01-12 02:00:00 2.3 3 Sudoeste 4 Sudoeste 0 -- -- 91
2020-01-12 01:00:00 1.7 3 Sur 4 Sudeste 0 -- -- 91
2020-01-12 00:00:00 2.5 2 Este 4 Este 0 -- -- 90
2020-01-11 23:00:00 3.6 0 Calma 7 Sudoeste 0 -- -- 85
2020-01-11 22:00:00 4.9 4 Sudoeste 5 Sudoeste 0 -- -- 81
2020-01-11 21:00:00 6.1 0 Calma 7 Noroeste 0 -- -- 74
2020-01-11 20:00:00 6.4 2 Noroeste 6 Norte 0 -- -- 76
2020-01-11 19:00:00 7.8 4 Oeste 6 Oeste 0 -- -- 70
2020-01-11 18:00:00 13.6 3 Oeste 5 Sudoeste 0 -- -- 51
2020-01-11 17:00:00 14.3 0 Calma 6 Sudeste 0 -- -- 46
2020-01-11 16:00:00 14.3 2 Este 7 Este 0 -- -- 46
2020-01-11 15:00:00 13.7 3 Sudeste 10 Este 0 -- -- 48
2020-01-11 14:00:00 12.7 6 Sudeste 15 Sudeste 0 -- -- 50
2020-01-11 13:00:00 11.8 8 Sudeste 16 Sur 0 -- -- 55
2020-01-11 12:00:00 10.4 10 Sudeste 16 Sudeste 0 -- -- 59
2020-01-11 11:00:00 8.6 7 Sur 12 Sur 0 -- -- 69
2020-01-11 10:00:00 6.6 3 Sur 14 Sur 0 -- -- 72
2020-01-11 09:00:00 3.4 9 Sudeste 13 Sudeste 0 -- -- 81
2020-01-11 08:00:00 2.6 8 Sudeste 11 Sudeste 0 -- -- 82
2020-01-11 07:00:00 2.6 4 Sudeste 6 Sudeste 0 -- -- 82
2020-01-11 06:00:00 3 2 Sur 9 Sur 0 -- -- 79
2020-01-11 05:00:00 3.4 4 Sudeste 9 Sudeste 0 -- -- 78
2020-01-11 04:00:00 3.5 5 Sur 10 Sudeste 0 -- -- 78
2020-01-11 03:00:00 4.1 5 Sur 8 Sur 0 -- -- 76
2020-01-11 02:00:00 3.7 5 Sur 8 Sudeste 0 -- -- 78
2020-01-11 01:00:00 4 4 Sur 6 Sur 0 -- -- 77
2020-01-11 00:00:00 5.3 3 Sudeste 5 Sur 0 -- -- 71
2020-01-10 23:00:00 5.4 2 Sudeste 7 Sur 0 -- -- 73
2020-01-10 22:00:00 7 5 Este 6 Este 0 -- -- 68
2020-01-10 21:00:00 7.3 2 Este 7 Sudeste 0 -- -- 66
2020-01-10 20:00:00 8.4 4 Sudeste 10 Este 0 -- -- 63
2020-01-10 19:00:00 8.9 5 Sudeste 9 Sudeste 0 -- -- 65
2020-01-10 18:00:00 11.8 6 Este 15 Este 0 -- -- 57
2020-01-10 17:00:00 13.3 10 Este 17 Este 0 -- -- 53
2020-01-10 16:00:00 13.6 10 Este 23 Sudeste 0 -- -- 50
2020-01-10 15:00:00 13.6 12 Sudeste 22 Sudeste 0 -- -- 48
2020-01-10 14:00:00 12.7 8 Este 15 Este 0 -- -- 55
2020-01-10 13:00:00 11 4 Este 8 Este 0 -- -- 72
2020-01-10 12:00:00 9.5 3 Sur 9 Sudeste 0 -- -- 84
2020-01-10 11:00:00 7.5 5 Sur 8 Sur 0 -- -- 91
2020-01-10 10:00:00 4.8 4 Sur 6 Sudoeste 0 -- -- 97
2020-01-10 09:00:00 2.7 3 Sur 6 Sur 0 -- -- 94
2020-01-10 08:00:00 3.4 4 Sudeste 10 Noroeste 0 -- -- 92
2020-01-10 07:00:00 6 8 Noroeste 17 Noroeste 0 -- -- 83
2020-01-10 06:00:00 6.6 8 Noroeste 17 Noroeste 0 -- -- 86
2020-01-10 05:00:00 7.6 11 Noroeste 19 Noroeste 0 -- -- 85
2020-01-10 04:00:00 8.2 8 Noroeste 19 Oeste 0 -- -- 86
2020-01-10 03:00:00 9.2 7 Noroeste 15 Oeste 0 -- -- 90
2020-01-10 02:00:00 9.1 8 Noroeste 14 Noroeste 0 -- -- 90
2020-01-10 01:00:00 8.9 6 Noroeste 14 Noroeste 0 -- -- 92
2020-01-10 00:00:00 7.2 3 Noroeste 4 Noroeste 0 -- -- 95
2020-01-09 23:00:00 7.3 3 Sudoeste 6 Este 0 -- -- 96
2020-01-09 22:00:00 6.9 2 Sudeste 4 Sudeste 0 -- -- 96
2020-01-09 21:00:00 6.2 0 Calma 4 Norte 0 -- -- 95
2020-01-09 20:00:00 6.4 0 Calma 3 Sudoeste 0 -- -- 92
2020-01-09 19:00:00 7.8 0 Calma 6 Noroeste 0 -- -- 88
2020-01-09 18:00:00 10.2 5 Norte 17 Noroeste 0 -- -- 81
2020-01-09 17:00:00 11.2 9 Norte 15 Noroeste 0 -- -- 78
2020-01-09 16:00:00 10.4 8 Norte 16 Noroeste 0 -- -- 85
2020-01-09 15:00:00 10.4 10 Norte 15 Norte 0 -- -- 85
2020-01-09 14:00:00 9.3 2 Norte 12 Norte 0 -- -- 90
2020-01-09 13:00:00 7 5 Noroeste 15 Noroeste 0 -- -- 99
2020-01-09 12:00:00 5.9 8 Noroeste 13 Noroeste 0 -- -- 97
2020-01-09 11:00:00 3.6 3 Sudeste 12 Noroeste 0 -- -- 99
2020-01-09 10:00:00 1.3 8 Noroeste 15 Noroeste 0 -- -- 98
2020-01-09 09:00:00 0.5 2 Sur 4 Sur 0 -- -- 98
2020-01-09 08:00:00 0.4 0 Calma 4 Sur 0 -- -- 97
2020-01-09 07:00:00 0.5 0 Calma 4 Noroeste 0 -- -- 97
2020-01-09 06:00:00 0.8 2 Norte 5 Noroeste 0 -- -- 96
2020-01-09 05:00:00 2 0 Calma 3 Sudoeste 0 -- -- 97
2020-01-09 04:00:00 1.5 3 Sudoeste 4 Sur 0 -- -- 97
2020-01-09 03:00:00 1.8 2 Noroeste 6 Sur 0 -- -- 95
2020-01-09 02:00:00 2.7 4 Sur 5 Sudoeste 0 -- -- 96
2020-01-09 01:00:00 3 4 Sur 5 Sur 0 -- -- 95
2020-01-09 00:00:00 3.5 2 Sudeste 4 Este 0 -- -- 94
2020-01-08 23:00:00 4.4 3 Noroeste 3 Noroeste 0 -- -- 92
2020-01-08 22:00:00 4.9 3 Oeste 4 Oeste 0 -- -- 90
2020-01-08 21:00:00 6.5 3 Sudoeste 5 Sudoeste 0 -- -- 86
2020-01-08 20:00:00 7.7 2 Norte 6 Oeste 0 -- -- 81
2020-01-08 19:00:00 9.9 4 Oeste 5 Oeste 0 -- -- 79
2020-01-08 18:00:00 13.3 4 Norte 6 Noroeste 0 -- -- 68
2020-01-08 17:00:00 14.6 3 Noroeste 5 Noroeste 0 -- -- 65
2020-01-08 16:00:00 14.7 2 Nordeste 7 Nordeste 0 -- -- 65
2020-01-08 15:00:00 13.7 2 Norte 6 Nordeste 0 -- -- 68
2020-01-08 14:00:00 12.9 2 Sudeste 5 Sudeste 0 -- -- 70
2020-01-08 13:00:00 10.8 2 Este 5 Sudeste 0 -- -- 77
2020-01-08 12:00:00 8.3 2 Este 6 Sudeste 0 -- -- 89
2020-01-08 11:00:00 6.6 3 Sudeste 5 Sudeste 0 -- -- 98
2020-01-08 10:00:00 2.6 0 Calma 3 Sudoeste 0 -- -- 99
2020-01-08 09:00:00 1.4 3 Sur 5 Sur 0 -- -- 98
2020-01-08 08:00:00 1.3 3 Sudeste 6 Sur 0 -- -- 96
2020-01-08 07:00:00 1.8 0 Calma 5 Sudeste 0 -- -- 98
2020-01-08 06:00:00 1.1 4 Sudeste 8 Sudeste 0 -- -- 97
2020-01-08 05:00:00 1.4 0 Calma 4 Sur 0 -- -- 96
2020-01-08 04:00:00 1.7 0 Calma -- -- 0 -- -- 97
2020-01-08 03:00:00 2.4 0 Calma 0 Calma 0 -- -- 95
2020-01-08 02:00:00 2.7 0 Calma 2 Este 0 -- -- 94
2020-01-08 01:00:00 3.7 0 Calma 3 Sudoeste 0 -- -- 94
2020-01-08 00:00:00 3.8 0 Calma 3 Sudoeste 0 -- -- 91
2020-01-07 23:00:00 5 0 Calma 3 Sudoeste 0 -- -- 91
2020-01-07 22:00:00 6.2 0 Calma 4 Sur 0 -- -- 86
2020-01-07 21:00:00 7.1 3 Sudoeste 4 Sudoeste 0 -- -- 85
2020-01-07 20:00:00 8.1 0 Calma 6 Noroeste 0 -- -- 84
2020-01-07 19:00:00 9.7 4 Oeste 6 Oeste 0 -- -- 76
2020-01-07 18:00:00 13.9 5 Noroeste 10 Noroeste 0 -- -- 64
2020-01-07 17:00:00 15.7 6 Norte 9 Norte 0 -- -- 57
2020-01-07 16:00:00 16.3 0 Calma 4 Oeste 0 -- -- 50
2020-01-07 15:00:00 14.9 3 Este 6 Este 0 -- -- 56
2020-01-07 14:00:00 13.4 2 Nordeste 6 Nordeste 0 -- -- 63
2020-01-07 13:00:00 11.5 3 Este 6 Este 0 -- -- 73
2020-01-07 12:00:00 9.2 2 Este 7 Este 0 -- -- 81
2020-01-07 11:00:00 7.5 5 Sudeste 8 Sudeste 0 -- -- 87
2020-01-07 10:00:00 3.8 2 Sudeste 6 Sudeste 0 -- -- 99
2020-01-07 09:00:00 1.6 5 Sudeste 9 Sudeste 0 -- -- 98
2020-01-07 08:00:00 1.8 8 Sudoeste 9 Sur 0 -- -- 98
2020-01-07 07:00:00 1 2 Sur 5 Este 0 -- -- 98
2020-01-07 06:00:00 1.4 0 Calma 9 Sudoeste 0 -- -- 97
2020-01-07 05:00:00 2.4 7 Sudoeste 9 Sudoeste 0 -- -- 97
2020-01-07 04:00:00 1.6 4 Sur 6 Sur 0 -- -- 98
2020-01-07 03:00:00 2.4 2 Este 4 Este 0 -- -- 96
2020-01-07 02:00:00 3.1 3 Sur 6 Sudoeste 0 -- -- 97
2020-01-07 01:00:00 3.1 2 Nordeste 3 Nordeste 0 -- -- 95
2020-01-07 00:00:00 3.5 2 Oeste 7 Sur 0 -- -- 93
2020-01-06 23:00:00 5.9 7 Sur 12 Sur 0 -- -- 93
2020-01-06 22:00:00 5.8 3 Sudeste 4 Sur 0 -- -- 90
2020-01-06 21:00:00 6.2 0 Calma 2 Nordeste 0 -- -- 87
2020-01-06 20:00:00 7.9 0 Calma 8 Oeste 0 -- -- 84
2020-01-06 19:00:00 9.8 5 Oeste 8 Oeste 0 -- -- 80
2020-01-06 18:00:00 12.7 5 Noroeste 9 Noroeste 0 -- -- 70
2020-01-06 17:00:00 15.4 0 Calma 4 Sudoeste 0 -- -- 57
2020-01-06 16:00:00 14.4 2 Noroeste 6 Noroeste 0 -- -- 60
2020-01-06 15:00:00 14.4 0 Calma 6 Norte 0 -- -- 60
2020-01-06 14:00:00 12.2 2 Norte 7 Noroeste 0 -- -- 70
2020-01-06 13:00:00 10.6 3 Nordeste 6 Nordeste 0 -- -- 74
2020-01-06 12:00:00 8.9 2 Este 7 Sudeste 0 -- -- 80
2020-01-06 11:00:00 6.6 0 Calma 4 Sudeste 0 -- -- 90
2020-01-06 10:00:00 2.7 2 Norte 5 Nordeste 0 -- -- 97